sensor_id;sensor_type;location;lat;lon;timestamp;P1;durP1;ratioP1;P2;durP2;ratioP2
42846;SDS011;28495;49.916;14.536;2022-09-03T00:04:39;1.88;;;1.30;;
42846;SDS011;28495;49.916;14.536;2022-09-03T00:10:04;4.53;;;1.38;;
42846;SDS011;28495;49.916;14.536;2022-09-03T00:15:30;1.95;;;0.90;;
42846;SDS011;28495;49.916;14.536;2022-09-03T00:20:54;1.40;;;0.90;;
42846;SDS011;28495;49.916;14.536;2022-09-03T00:26:21;1.02;;;1.02;;
42846;SDS011;28495;49.916;14.536;2022-09-03T00:31:52;1.60;;;1.10;;
42846;SDS011;28495;49.916;14.536;2022-09-03T00:37:16;1.30;;;1.20;;
42846;SDS011;28495;49.916;14.536;2022-09-03T00:48:41;2.88;;;1.10;;
42846;SDS011;28495;49.916;14.536;2022-09-03T00:54:26;2.75;;;0.88;;
42846;SDS011;28495;49.916;14.536;2022-09-03T01:00:08;5.53;;;1.30;;
42846;SDS011;28495;49.916;14.536;2022-09-03T01:17:03;2.90;;;1.20;;
42846;SDS011;28495;49.916;14.536;2022-09-03T01:22:42;1.45;;;1.30;;
42846;SDS011;28495;49.916;14.536;2022-09-03T01:39:04;0.93;;;0.90;;
42846;SDS011;28495;49.916;14.536;2022-09-03T01:50:09;2.85;;;1.23;;
42846;SDS011;28495;49.916;14.536;2022-09-03T02:01:46;1.17;;;0.90;;
42846;SDS011;28495;49.916;14.536;2022-09-03T02:07:10;1.75;;;0.95;;
42846;SDS011;28495;49.916;14.536;2022-09-03T02:12:30;1.17;;;0.90;;
42846;SDS011;28495;49.916;14.536;2022-09-03T02:17:54;1.50;;;1.20;;
42846;SDS011;28495;49.916;14.536;2022-09-03T02:23:21;3.17;;;0.93;;
42846;SDS011;28495;49.916;14.536;2022-09-03T02:28:47;2.03;;;1.00;;
42846;SDS011;28495;49.916;14.536;2022-09-03T02:34:09;1.67;;;1.00;;
42846;SDS011;28495;49.916;14.536;2022-09-03T02:39:29;1.17;;;1.10;;
42846;SDS011;28495;49.916;14.536;2022-09-03T02:44:59;2.88;;;1.10;;
42846;SDS011;28495;49.916;14.536;2022-09-03T02:50:28;1.83;;;0.93;;
42846;SDS011;28495;49.916;14.536;2022-09-03T02:55:49;1.70;;;1.00;;
42846;SDS011;28495;49.916;14.536;2022-09-03T03:01:10;2.53;;;1.08;;
42846;SDS011;28495;49.916;14.536;2022-09-03T03:06:39;1.43;;;0.90;;
42846;SDS011;28495;49.916;14.536;2022-09-03T03:11:59;1.20;;;1.10;;
42846;SDS011;28495;49.916;14.536;2022-09-03T03:17:20;3.90;;;1.10;;
42846;SDS011;28495;49.916;14.536;2022-09-03T03:22:41;1.23;;;1.10;;
42846;SDS011;28495;49.916;14.536;2022-09-03T03:28:02;2.30;;;1.38;;
42846;SDS011;28495;49.916;14.536;2022-09-03T03:33:24;1.42;;;1.08;;
42846;SDS011;28495;49.916;14.536;2022-09-03T03:38:44;1.30;;;0.95;;
42846;SDS011;28495;49.916;14.536;2022-09-03T03:44:06;1.25;;;0.95;;
42846;SDS011;28495;49.916;14.536;2022-09-03T03:49:28;1.05;;;0.95;;
42846;SDS011;28495;49.916;14.536;2022-09-03T03:54:48;1.63;;;0.73;;
42846;SDS011;28495;49.916;14.536;2022-09-03T04:00:10;2.63;;;1.00;;
42846;SDS011;28495;49.916;14.536;2022-09-03T04:05:34;1.75;;;0.90;;
42846;SDS011;28495;49.916;14.536;2022-09-03T04:11:00;1.00;;;0.90;;
42846;SDS011;28495;49.916;14.536;2022-09-03T04:16:22;1.08;;;0.90;;
42846;SDS011;28495;49.916;14.536;2022-09-03T04:21:47;2.67;;;1.70;;
42846;SDS011;28495;49.916;14.536;2022-09-03T04:27:07;1.98;;;1.05;;
42846;SDS011;28495;49.916;14.536;2022-09-03T04:32:28;1.90;;;1.17;;
42846;SDS011;28495;49.916;14.536;2022-09-03T04:38:11;1.45;;;0.88;;
42846;SDS011;28495;49.916;14.536;2022-09-03T04:43:32;2.33;;;1.00;;
42846;SDS011;28495;49.916;14.536;2022-09-03T04:48:53;2.28;;;0.93;;
42846;SDS011;28495;49.916;14.536;2022-09-03T04:54:14;2.75;;;1.27;;
42846;SDS011;28495;49.916;14.536;2022-09-03T04:59:35;1.90;;;1.50;;
42846;SDS011;28495;49.916;14.536;2022-09-03T05:04:56;1.33;;;0.90;;
42846;SDS011;28495;49.916;14.536;2022-09-03T05:10:16;1.70;;;1.15;;
42846;SDS011;28495;49.916;14.536;2022-09-03T05:15:40;1.02;;;0.93;;
42846;SDS011;28495;49.916;14.536;2022-09-03T05:21:05;1.27;;;0.98;;
42846;SDS011;28495;49.916;14.536;2022-09-03T05:26:29;2.08;;;1.30;;
42846;SDS011;28495;49.916;14.536;2022-09-03T05:31:51;1.42;;;1.23;;
42846;SDS011;28495;49.916;14.536;2022-09-03T05:37:12;3.15;;;1.40;;
42846;SDS011;28495;49.916;14.536;2022-09-03T05:42:33;3.53;;;1.45;;
42846;SDS011;28495;49.916;14.536;2022-09-03T05:47:59;5.28;;;1.55;;
42846;SDS011;28495;49.916;14.536;2022-09-03T05:53:22;3.05;;;1.17;;
42846;SDS011;28495;49.916;14.536;2022-09-03T05:58:46;1.73;;;1.00;;
42846;SDS011;28495;49.916;14.536;2022-09-03T06:04:10;1.88;;;1.17;;
42846;SDS011;28495;49.916;14.536;2022-09-03T06:09:33;1.20;;;0.98;;
42846;SDS011;28495;49.916;14.536;2022-09-03T06:14:53;0.80;;;0.80;;
42846;SDS011;28495;49.916;14.536;2022-09-03T06:20:15;1.30;;;1.17;;
42846;SDS011;28495;49.916;14.536;2022-09-03T06:25:36;2.78;;;1.00;;
42846;SDS011;28495;49.916;14.536;2022-09-03T06:30:58;4.43;;;1.88;;
42846;SDS011;28495;49.916;14.536;2022-09-03T06:36:19;5.13;;;2.50;;
42846;SDS011;28495;49.916;14.536;2022-09-03T06:41:42;4.32;;;2.35;;
42846;SDS011;28495;49.916;14.536;2022-09-03T06:47:04;2.53;;;1.75;;
42846;SDS011;28495;49.916;14.536;2022-09-03T06:52:25;3.92;;;1.60;;
42846;SDS011;28495;49.916;14.536;2022-09-03T06:57:46;2.00;;;1.38;;
42846;SDS011;28495;49.916;14.536;2022-09-03T07:03:12;2.08;;;1.40;;
42846;SDS011;28495;49.916;14.536;2022-09-03T07:08:34;1.52;;;1.10;;
42846;SDS011;28495;49.916;14.536;2022-09-03T07:13:55;3.28;;;1.20;;
42846;SDS011;28495;49.916;14.536;2022-09-03T07:19:17;7.93;;;1.23;;
42846;SDS011;28495;49.916;14.536;2022-09-03T07:24:38;3.30;;;2.10;;
42846;SDS011;28495;49.916;14.536;2022-09-03T07:29:59;2.50;;;1.60;;
42846;SDS011;28495;49.916;14.536;2022-09-03T07:35:19;1.75;;;1.30;;
42846;SDS011;28495;49.916;14.536;2022-09-03T07:40:40;1.23;;;1.05;;
42846;SDS011;28495;49.916;14.536;2022-09-03T07:46:01;2.13;;;1.10;;
42846;SDS011;28495;49.916;14.536;2022-09-03T07:51:24;1.15;;;1.05;;
42846;SDS011;28495;49.916;14.536;2022-09-03T07:56:47;3.90;;;1.73;;
42846;SDS011;28495;49.916;14.536;2022-09-03T08:02:08;3.55;;;1.50;;
42846;SDS011;28495;49.916;14.536;2022-09-03T08:07:29;1.98;;;1.20;;
42846;SDS011;28495;49.916;14.536;2022-09-03T08:12:50;1.63;;;1.10;;
42846;SDS011;28495;49.916;14.536;2022-09-03T08:18:11;4.45;;;1.50;;
42846;SDS011;28495;49.916;14.536;2022-09-03T08:23:35;1.42;;;1.08;;
42846;SDS011;28495;49.916;14.536;2022-09-03T08:28:57;2.88;;;0.95;;
42846;SDS011;28495;49.916;14.536;2022-09-03T08:34:18;1.65;;;1.17;;
42846;SDS011;28495;49.916;14.536;2022-09-03T08:39:40;1.75;;;0.95;;
42846;SDS011;28495;49.916;14.536;2022-09-03T08:45:01;1.48;;;1.10;;
42846;SDS011;28495;49.916;14.536;2022-09-03T08:50:31;1.48;;;1.00;;
42846;SDS011;28495;49.916;14.536;2022-09-03T08:56:05;3.78;;;1.27;;
42846;SDS011;28495;49.916;14.536;2022-09-03T09:02:14;4.00;;;1.52;;
42846;SDS011;28495;49.916;14.536;2022-09-03T09:07:16;2.40;;;1.50;;
42846;SDS011;28495;49.916;14.536;2022-09-03T09:23:43;1.65;;;1.27;;
42846;SDS011;28495;49.916;14.536;2022-09-03T09:29:08;1.85;;;1.30;;
42846;SDS011;28495;49.916;14.536;2022-09-03T09:34:34;2.22;;;1.40;;
42846;SDS011;28495;49.916;14.536;2022-09-03T09:39:57;3.78;;;1.92;;
42846;SDS011;28495;49.916;14.536;2022-09-03T09:45:21;2.17;;;1.25;;
42846;SDS011;28495;49.916;14.536;2022-09-03T09:50:42;1.75;;;1.27;;
42846;SDS011;28495;49.916;14.536;2022-09-03T09:56:03;2.88;;;1.20;;
42846;SDS011;28495;49.916;14.536;2022-09-03T10:01:25;3.22;;;1.30;;
42846;SDS011;28495;49.916;14.536;2022-09-03T10:06:53;2.00;;;1.38;;
42846;SDS011;28495;49.916;14.536;2022-09-03T10:12:24;1.50;;;1.40;;
42846;SDS011;28495;49.916;14.536;2022-09-03T10:17:56;1.30;;;1.17;;
42846;SDS011;28495;49.916;14.536;2022-09-03T10:23:24;1.65;;;1.35;;
42846;SDS011;28495;49.916;14.536;2022-09-03T10:28:50;1.98;;;1.25;;
42846;SDS011;28495;49.916;14.536;2022-09-03T10:46:45;3.20;;;1.60;;
42846;SDS011;28495;49.916;14.536;2022-09-03T10:51:49;2.28;;;1.30;;
42846;SDS011;28495;49.916;14.536;2022-09-03T10:57:18;1.40;;;1.30;;
42846;SDS011;28495;49.916;14.536;2022-09-03T11:20:16;2.60;;;1.23;;
42846;SDS011;28495;49.916;14.536;2022-09-03T11:25:40;2.20;;;0.98;;
42846;SDS011;28495;49.916;14.536;2022-09-03T11:31:22;2.60;;;0.93;;
42846;SDS011;28495;49.916;14.536;2022-09-03T11:36:52;3.15;;;1.40;;
42846;SDS011;28495;49.916;14.536;2022-09-03T11:42:44;1.95;;;1.48;;
42846;SDS011;28495;49.916;14.536;2022-09-03T11:48:27;1.58;;;1.00;;
42846;SDS011;28495;49.916;14.536;2022-09-03T11:53:57;2.13;;;1.30;;
42846;SDS011;28495;49.916;14.536;2022-09-03T11:59:23;1.88;;;1.13;;
42846;SDS011;28495;49.916;14.536;2022-09-03T12:05:35;1.67;;;1.15;;
42846;SDS011;28495;49.916;14.536;2022-09-03T12:16:31;1.50;;;1.27;;
42846;SDS011;28495;49.916;14.536;2022-09-03T12:22:00;1.77;;;1.40;;
42846;SDS011;28495;49.916;14.536;2022-09-03T12:27:24;2.75;;;1.48;;
42846;SDS011;28495;49.916;14.536;2022-09-03T12:32:47;1.92;;;1.50;;
42846;SDS011;28495;49.916;14.536;2022-09-03T12:38:08;1.65;;;1.10;;
42846;SDS011;28495;49.916;14.536;2022-09-03T12:43:38;2.38;;;1.55;;
42846;SDS011;28495;49.916;14.536;2022-09-03T12:49:02;4.22;;;1.60;;
42846;SDS011;28495;49.916;14.536;2022-09-03T13:00:25;2.87;;;1.77;;
42846;SDS011;28495;49.916;14.536;2022-09-03T13:05:51;3.65;;;1.30;;
42846;SDS011;28495;49.916;14.536;2022-09-03T13:11:19;4.50;;;1.30;;
42846;SDS011;28495;49.916;14.536;2022-09-03T13:33:31;1.60;;;1.33;;
42846;SDS011;28495;49.916;14.536;2022-09-03T13:39:04;2.55;;;1.42;;
42846;SDS011;28495;49.916;14.536;2022-09-03T13:50:10;1.33;;;1.23;;
42846;SDS011;28495;49.916;14.536;2022-09-03T13:55:47;1.00;;;0.90;;
42846;SDS011;28495;49.916;14.536;2022-09-03T14:01:14;1.40;;;1.30;;
42846;SDS011;28495;49.916;14.536;2022-09-03T14:18:32;1.58;;;1.38;;
42846;SDS011;28495;49.916;14.536;2022-09-03T14:29:30;2.30;;;1.70;;
42846;SDS011;28495;49.916;14.536;2022-09-03T14:40:45;4.07;;;1.10;;
42846;SDS011;28495;49.916;14.536;2022-09-03T14:51:56;2.95;;;1.40;;
42846;SDS011;28495;49.916;14.536;2022-09-03T15:14:16;1.55;;;1.00;;
42846;SDS011;28495;49.916;14.536;2022-09-03T15:19:51;1.25;;;1.13;;
42846;SDS011;28495;49.916;14.536;2022-09-03T15:25:47;2.25;;;1.55;;
42846;SDS011;28495;49.916;14.536;2022-09-03T15:31:22;2.25;;;1.38;;
42846;SDS011;28495;49.916;14.536;2022-09-03T15:36:58;3.25;;;1.30;;
42846;SDS011;28495;49.916;14.536;2022-09-03T15:42:27;1.38;;;1.25;;
42846;SDS011;28495;49.916;14.536;2022-09-03T15:47:51;1.70;;;1.30;;
42846;SDS011;28495;49.916;14.536;2022-09-03T15:53:30;2.20;;;1.23;;
42846;SDS011;28495;49.916;14.536;2022-09-03T15:59:00;2.90;;;1.15;;
42846;SDS011;28495;49.916;14.536;2022-09-03T16:10:44;1.85;;;1.10;;
42846;SDS011;28495;49.916;14.536;2022-09-03T16:22:28;2.33;;;1.48;;
42846;SDS011;28495;49.916;14.536;2022-09-03T16:28:08;1.67;;;1.50;;
42846;SDS011;28495;49.916;14.536;2022-09-03T16:33:56;4.38;;;2.90;;
42846;SDS011;28495;49.916;14.536;2022-09-03T17:24:58;3.65;;;2.97;;
42846;SDS011;28495;49.916;14.536;2022-09-03T17:30:27;1.70;;;1.60;;
42846;SDS011;28495;49.916;14.536;2022-09-03T17:36:21;1.92;;;1.33;;
42846;SDS011;28495;49.916;14.536;2022-09-03T17:41:51;6.03;;;1.92;;
42846;SDS011;28495;49.916;14.536;2022-09-03T17:52:48;1.95;;;1.60;;
42846;SDS011;28495;49.916;14.536;2022-09-03T17:58:20;2.08;;;1.70;;
42846;SDS011;28495;49.916;14.536;2022-09-03T18:10:02;2.75;;;2.30;;
42846;SDS011;28495;49.916;14.536;2022-09-03T18:20:58;3.08;;;1.85;;
42846;SDS011;28495;49.916;14.536;2022-09-03T18:26:50;2.63;;;1.98;;
42846;SDS011;28495;49.916;14.536;2022-09-03T18:32:35;2.03;;;1.80;;
42846;SDS011;28495;49.916;14.536;2022-09-03T18:38:16;4.03;;;1.90;;
42846;SDS011;28495;49.916;14.536;2022-09-03T18:56:36;2.97;;;1.80;;
42846;SDS011;28495;49.916;14.536;2022-09-03T19:02:18;3.50;;;1.88;;
42846;SDS011;28495;49.916;14.536;2022-09-03T19:08:11;2.90;;;2.25;;
42846;SDS011;28495;49.916;14.536;2022-09-03T19:13:58;3.10;;;2.70;;
42846;SDS011;28495;49.916;14.536;2022-09-03T19:25:32;3.88;;;2.25;;
42846;SDS011;28495;49.916;14.536;2022-09-03T19:31:25;5.40;;;3.23;;
42846;SDS011;28495;49.916;14.536;2022-09-03T19:37:14;6.25;;;3.45;;
42846;SDS011;28495;49.916;14.536;2022-09-03T19:49:29;4.80;;;2.95;;
42846;SDS011;28495;49.916;14.536;2022-09-03T19:55:11;7.30;;;3.70;;
42846;SDS011;28495;49.916;14.536;2022-09-03T20:00:59;5.93;;;4.00;;
42846;SDS011;28495;49.916;14.536;2022-09-03T20:06:38;5.90;;;3.60;;
42846;SDS011;28495;49.916;14.536;2022-09-03T20:12:18;7.65;;;4.30;;
42846;SDS011;28495;49.916;14.536;2022-09-03T20:17:47;5.88;;;4.05;;
42846;SDS011;28495;49.916;14.536;2022-09-03T20:41:02;7.35;;;4.50;;
42846;SDS011;28495;49.916;14.536;2022-09-03T20:52:09;6.00;;;4.30;;
42846;SDS011;28495;49.916;14.536;2022-09-03T20:57:50;6.65;;;4.05;;
42846;SDS011;28495;49.916;14.536;2022-09-03T21:14:18;7.25;;;3.78;;
42846;SDS011;28495;49.916;14.536;2022-09-03T21:20:13;5.90;;;3.58;;
42846;SDS011;28495;49.916;14.536;2022-09-03T21:25:47;7.63;;;4.03;;
42846;SDS011;28495;49.916;14.536;2022-09-03T21:31:20;7.97;;;4.40;;
42846;SDS011;28495;49.916;14.536;2022-09-03T21:36:58;7.68;;;5.43;;
42846;SDS011;28495;49.916;14.536;2022-09-03T21:47:52;7.68;;;4.75;;
42846;SDS011;28495;49.916;14.536;2022-09-03T21:53:31;5.32;;;4.22;;
42846;SDS011;28495;49.916;14.536;2022-09-03T21:59:08;6.57;;;4.35;;
42846;SDS011;28495;49.916;14.536;2022-09-03T22:05:01;6.25;;;4.15;;
42846;SDS011;28495;49.916;14.536;2022-09-03T22:16:25;5.32;;;4.18;;
42846;SDS011;28495;49.916;14.536;2022-09-03T22:21:58;7.65;;;4.03;;
42846;SDS011;28495;49.916;14.536;2022-09-03T23:06:50;6.40;;;3.85;;
42846;SDS011;28495;49.916;14.536;2022-09-03T23:12:25;4.03;;;3.63;;
42846;SDS011;28495;49.916;14.536;2022-09-03T23:17:54;5.05;;;3.58;;
42846;SDS011;28495;49.916;14.536;2022-09-03T23:23:27;5.85;;;4.22;;
42846;SDS011;28495;49.916;14.536;2022-09-03T23:28:52;3.95;;;3.38;;
42846;SDS011;28495;49.916;14.536;2022-09-03T23:34:23;5.75;;;3.33;;
42846;SDS011;28495;49.916;14.536;2022-09-03T23:56:51;3.53;;;2.78;;
